Time;durP1;ratioP1;P1;durP2;ratioP2;P2;SDS_P1;SDS_P2;PMS_P1;PMS_P2;Temp;Humidity;BMP_temperature;BMP_pressure;BME280_temperature;BME280_humidity;BME280_pressure;Samples;Min_cycle;Max_cycle;Signal;HPM_P1;HPM_P2
2022/07/28 00:02:06;;;;;;;6.50;2.43;;;;;;;21.29;nan;100113.72;5009619;28;20165;-70
2022/07/28 00:04:32;;;;;;;6.38;2.40;;;;;;;21.32;nan;100150.63;5012035;28;20037;-71
2022/07/28 00:06:59;;;;;;;4.93;2.53;;;;;;;21.33;nan;100124.63;5008979;28;20034;-71
2022/07/28 00:09:24;;;;;;;5.75;2.60;;;;;;;21.30;nan;100115.31;5010504;28;20041;-71
2022/07/28 00:11:49;;;;;;;5.40;2.60;;;;;;;21.27;nan;100107.88;5012183;28;20488;-72
2022/07/28 00:14:15;;;;;;;3.97;2.50;;;;;;;21.22;nan;100121.41;5012130;28;20075;-70
2022/07/28 00:16:41;;;;;;;5.57;2.65;;;;;;;21.19;nan;100128.16;5009615;28;20411;-71
2022/07/28 00:19:06;;;;;;;7.30;2.47;;;;;;;21.09;nan;100093.53;5010581;28;20037;-70
2022/07/28 00:21:32;;;;;;;7.05;2.60;;;;;;;;;;5005889;28;20041;-70
2022/07/28 00:23:57;;;;;;;4.57;2.90;;;;;;;21.06;nan;100117.47;5006950;28;20042;-70
2022/07/28 00:26:23;;;;;;;4.28;2.70;;;;;;;20.95;nan;100108.84;5006373;28;20286;-68
2022/07/28 00:28:49;;;;;;;8.15;2.95;;;;;;;20.96;nan;100110.47;5025513;28;20038;-68
2022/07/28 00:31:14;;;;;;;4.35;2.60;;;;;;;20.93;nan;100103.03;5008072;28;20477;-69
2022/07/28 00:33:40;;;;;;;7.45;2.80;;;;;;;20.90;nan;100112.47;5008335;28;20526;-71
2022/07/28 00:36:07;;;;;;;6.93;2.90;;;;;;;20.91;nan;100113.25;5005568;28;20034;-68
2022/07/28 00:38:33;;;;;;;6.00;2.88;;;;;;;20.91;nan;100105.22;5009037;28;20069;-70
2022/07/28 00:41:13;;;;;;;9.18;2.90;;;;;;;20.79;nan;100095.03;5010626;28;20045;-70
2022/07/28 00:43:47;;;;;;;5.07;2.78;;;;;;;20.77;nan;100102.56;5012226;28;20030;-69
2022/07/28 00:46:15;;;;;;;7.13;3.22;;;;;;;20.82;nan;100089.84;5005959;28;20388;-69
2022/07/28 00:48:43;;;;;;;3.38;2.78;;;;;;;20.79;nan;100097.72;5007499;28;20037;-69
2022/07/28 00:51:09;;;;;;;5.63;2.70;;;;;;;20.80;nan;100099.28;5008036;28;20037;-70
2022/07/28 00:53:37;;;;;;;9.55;2.88;;;;;;;20.73;nan;100096.22;5008403;28;20036;-69
2022/07/28 00:56:03;;;;;;;8.57;3.00;;;;;;;20.71;nan;100099.22;5004178;28;20038;-68
2022/07/28 00:58:29;;;;;;;4.65;2.60;;;;;;;20.67;nan;100100.09;5009195;28;20038;-68
2022/07/28 01:00:54;;;;;;;10.30;2.90;;;;;;;20.60;nan;100103.97;5005123;28;20646;-67
2022/07/28 01:03:20;;;;;;;8.32;2.85;;;;;;;20.57;nan;100082.38;5009477;28;20036;-70
2022/07/28 01:06:04;;;;;;;28.23;4.55;;;;;;;20.60;nan;100105.84;5010631;28;20030;-70
2022/07/28 01:08:35;;;;;;;13.63;3.58;;;;;;;20.56;nan;100118.25;5005125;28;20029;-70
2022/07/28 01:11:07;;;;;;;6.97;2.70;;;;;;;20.39;nan;100108.13;5008119;28;20480;-70
2022/07/28 01:13:48;;;;;;;7.88;2.78;;;;;;;20.33;nan;100086.03;5006544;28;20116;-70
2022/07/28 01:16:14;;;;;;;4.45;2.72;;;;;;;20.34;nan;100097.53;5006826;28;20086;-69
2022/07/28 01:18:46;;;;;;;8.25;3.00;;;;;;;20.40;nan;100096.34;5003406;28;20079;-70
2022/07/28 01:21:14;;;;;;;5.05;2.72;;;;;;;20.39;nan;100119.59;5008002;28;20069;-69
2022/07/28 01:24:10;;;;;;;5.82;2.60;;;;;;;20.36;nan;100117.53;5009824;28;20045;-70
2022/07/28 01:26:42;;;;;;;8.57;2.83;;;;;;;20.37;nan;100104.94;5008776;28;20124;-69
2022/07/28 01:29:16;;;;;;;4.95;2.70;;;;;;;20.36;nan;100114.84;5005116;28;20030;-69
2022/07/28 01:31:44;;;;;;;3.75;2.80;;;;;;;20.35;nan;100110.59;5006686;28;20373;-70
2022/07/28 01:34:15;;;;;;;5.37;2.70;;;;;;;20.30;nan;100101.88;5005871;28;20037;-70
2022/07/28 01:36:45;;;;;;;9.00;2.92;;;;;;;20.24;nan;100108.41;5007496;28;20100;-70
2022/07/28 01:39:13;;;;;;;6.78;2.80;;;;;;;20.22;nan;100118.63;5009905;28;20041;-69
2022/07/28 01:41:40;;;;;;;5.10;3.30;;;;;;;;;;5010564;28;20712;-69
2022/07/28 01:44:12;;;;;;;4.93;2.70;;;;;;;20.11;nan;100105.44;5011203;28;20126;-70
2022/07/28 01:46:38;;;;;;;5.43;3.10;;;;;;;20.17;nan;100125.63;5008922;28;20029;-72
2022/07/28 01:49:06;;;;;;;5.90;3.00;;;;;;;20.16;nan;100121.38;5009394;28;20038;-71
2022/07/28 01:51:33;;;;;;;6.22;2.83;;;;;;;20.23;nan;100131.66;5010597;28;20025;-68
2022/07/28 01:54:01;;;;;;;6.47;2.63;;;;;;;20.26;nan;100116.94;5004077;28;20033;-70
2022/07/28 01:56:28;;;;;;;8.38;2.78;;;;;;;;;;5009527;28;20030;-70
2022/07/28 01:58:55;;;;;;;7.28;2.78;;;;;;;;;;5011080;28;20038;-70
2022/07/28 02:01:23;;;;;;;7.47;2.97;;;;;;;20.15;nan;100157.22;5004607;28;20034;-70
2022/07/28 02:03:50;;;;;;;6.00;2.90;;;;;;;20.13;nan;100138.00;5008250;28;20062;-69
2022/07/28 02:06:18;;;;;;;6.90;2.70;;;;;;;20.08;nan;100130.06;5006261;28;20121;-70
2022/07/28 02:08:44;;;;;;;7.10;3.03;;;;;;;;;;5021130;28;20049;-68
2022/07/28 02:13:55;;;;;;;10.70;3.10;;;;;;;19.99;nan;100166.56;5008314;28;20057;-70
2022/07/28 02:16:24;;;;;;;12.05;3.35;;;;;;;19.92;nan;100110.03;5007609;28;20585;-71
2022/07/28 02:18:52;;;;;;;11.52;2.92;;;;;;;19.99;nan;100142.53;5001477;28;20046;-70
2022/07/28 02:21:20;;;;;;;6.68;2.55;;;;;;;19.97;nan;100118.00;5005535;28;20057;-70
2022/07/28 02:23:47;;;;;;;9.10;3.30;;;;;;;19.89;nan;100132.00;5005046;28;20092;-68
2022/07/28 02:26:15;;;;;;;7.57;2.72;;;;;;;19.88;nan;100122.44;5003880;28;20042;-69
2022/07/28 02:28:42;;;;;;;8.10;3.10;;;;;;;19.80;nan;100096.38;5009228;28;20034;-68
2022/07/28 02:31:15;;;;;;;6.07;2.88;;;;;;;19.85;nan;100120.31;5002661;28;20034;-70
2022/07/28 02:33:42;;;;;;;6.32;3.10;;;;;;;19.84;nan;100089.34;5009355;28;20069;-70
2022/07/28 02:36:24;;;;;;;8.90;3.22;;;;;;;19.87;nan;100120.81;5006658;28;20100;-69
2022/07/28 02:38:50;;;;;;;11.10;3.08;;;;;;;;;;5009142;28;20065;-68
2022/07/28 02:41:26;;;;;;;13.85;3.30;;;;;;;19.85;nan;100121.13;5006495;28;20519;-69
2022/07/28 02:43:55;;;;;;;6.38;2.70;;;;;;;19.84;nan;100134.78;5007413;28;20044;-69
2022/07/28 02:46:27;;;;;;;7.15;3.08;;;;;;;19.83;nan;100135.88;5007934;28;20080;-68
2022/07/28 02:49:03;;;;;;;10.43;3.22;;;;;;;19.89;nan;100127.47;5003973;28;20030;-68
2022/07/28 02:51:32;;;;;;;6.15;3.30;;;;;;;19.88;nan;100191.91;5005387;28;20034;-70
2022/07/28 02:53:58;;;;;;;8.27;3.17;;;;;;;19.94;nan;100132.75;5009388;28;20034;-68
2022/07/28 02:56:25;;;;;;;8.45;2.97;;;;;;;19.96;nan;100137.78;5008450;28;20034;-68
2022/07/28 02:58:53;;;;;;;13.25;3.05;;;;;;;20.04;nan;100142.47;5009289;28;20388;-70
2022/07/28 03:01:19;;;;;;;9.18;3.05;;;;;;;20.07;nan;100144.53;5003270;28;20042;-67
2022/07/28 03:03:49;;;;;;;8.88;2.95;;;;;;;20.08;nan;100148.78;5006703;28;20052;-69
2022/07/28 03:06:15;;;;;;;6.93;2.80;;;;;;;20.07;nan;100149.09;5007718;28;20023;-68
2022/07/28 03:08:42;;;;;;;6.13;3.08;;;;;;;20.04;nan;100089.00;5005741;28;20034;-71
2022/07/28 03:11:12;;;;;;;8.02;3.13;;;;;;;20.11;nan;100145.53;5003678;28;20041;-68
2022/07/28 03:13:38;;;;;;;10.57;3.20;;;;;;;20.11;nan;100152.75;5006864;28;20030;-69
2022/07/28 03:16:05;;;;;;;15.05;3.25;;;;;;;20.10;nan;100140.47;5003805;28;20038;-69
2022/07/28 03:18:31;;;;;;;7.25;2.97;;;;;;;20.11;nan;100145.53;5007122;28;20030;-67
2022/07/28 03:20:57;;;;;;;4.22;3.20;;;;;;;20.11;nan;100150.88;5007762;28;20499;-70
2022/07/28 03:23:27;;;;;;;11.98;3.10;;;;;;;20.14;nan;100198.41;5005053;28;20120;-70
2022/07/28 03:25:53;;;;;;;7.03;2.72;;;;;;;;;;5024196;28;20080;-68
2022/07/28 03:28:20;;;;;;;9.10;2.97;;;;;;;20.17;nan;100132.88;5009167;28;20029;-70
2022/07/28 03:30:53;;;;;;;4.75;2.80;;;;;;;20.10;nan;100141.25;5009557;28;20041;-70
2022/07/28 03:33:18;;;;;;;12.75;3.65;;;;;;;20.19;nan;100176.94;5010405;28;20514;-70
2022/07/28 03:35:49;;;;;;;8.77;3.08;;;;;;;20.16;nan;100131.25;5011645;28;20129;-70
2022/07/28 03:38:19;;;;;;;4.75;3.05;;;;;;;20.21;nan;100163.28;5007171;28;20128;-69
2022/07/28 03:40:47;;;;;;;13.40;3.30;;;;;;;20.18;nan;100159.31;5004550;28;20085;-71
2022/07/28 03:43:17;;;;;;;6.18;3.03;;;;;;;20.22;nan;100170.19;5011931;28;20061;-70
2022/07/28 03:45:44;;;;;;;8.18;3.47;;;;;;;20.23;nan;100169.09;5013233;28;20145;-68
2022/07/28 03:48:10;;;;;;;9.90;3.42;;;;;;;20.18;nan;100172.69;5011789;28;20034;-70
2022/07/28 03:50:36;;;;;;;7.30;3.63;;;;;;;20.17;nan;100164.94;5011120;28;20396;-68
2022/07/28 03:53:02;;;;;;;11.38;3.50;;;;;;;20.15;nan;100167.91;5008019;28;20041;-70
2022/07/28 03:55:27;;;;;;;9.57;3.70;;;;;;;20.12;nan;100167.72;5008987;28;20041;-70
2022/07/28 03:57:53;;;;;;;12.13;2.90;;;;;;;20.17;nan;100154.25;5008732;28;20038;-68
2022/07/28 04:00:19;;;;;;;5.68;3.17;;;;;;;;;;5008284;28;20034;-71
2022/07/28 04:02:45;;;;;;;7.57;3.28;;;;;;;20.17;nan;100171.06;5009258;28;20522;-71
2022/07/28 04:05:17;;;;;;;7.90;3.13;;;;;;;20.24;nan;100168.03;5007426;28;20054;-70
2022/07/28 04:07:43;;;;;;;7.45;3.38;;;;;;;20.26;nan;100173.88;5008048;28;20033;-69
2022/07/28 04:10:09;;;;;;;10.50;3.33;;;;;;;;;;5009087;28;20027;-68
2022/07/28 04:12:49;;;;;;;7.75;3.70;;;;;;;20.33;nan;100184.19;5006581;28;20072;-73
2022/07/28 04:15:15;;;;;;;10.60;4.05;;;;;;;20.34;nan;100223.22;5007418;28;20045;-72
2022/07/28 04:17:41;;;;;;;10.13;3.97;;;;;;;20.38;nan;100176.06;5022689;28;20041;-72
2022/07/28 04:20:07;;;;;;;11.13;3.58;;;;;;;20.42;nan;100161.00;5008328;28;20038;-70
2022/07/28 04:22:33;;;;;;;9.18;3.70;;;;;;;20.43;nan;100212.63;5007943;28;20508;-70
2022/07/28 04:25:00;;;;;;;10.30;3.20;;;;;;;20.50;nan;100171.03;5004180;28;20054;-70
2022/07/28 04:27:26;;;;;;;12.43;3.30;;;;;;;20.53;nan;100159.72;5009913;28;20040;-72
2022/07/28 04:29:51;;;;;;;9.60;3.22;;;;;;;20.58;nan;100185.63;5007633;28;20054;-71
2022/07/28 04:32:16;;;;;;;11.80;3.15;;;;;;;20.63;nan;100171.34;5008639;28;20037;-71
2022/07/28 04:34:43;;;;;;;11.55;3.72;;;;;;;20.65;nan;100155.78;5009863;28;20092;-72
2022/07/28 04:37:08;;;;;;;16.25;4.45;;;;;;;20.69;nan;100170.97;5007268;28;20038;-72
2022/07/28 04:39:34;;;;;;;8.50;4.30;;;;;;;20.74;nan;100191.47;5004212;28;20554;-71
2022/07/28 04:42:00;;;;;;;14.88;4.72;;;;;;;20.73;nan;100235.38;5012418;28;20050;-70
2022/07/28 04:44:25;;;;;;;12.15;4.55;;;;;;;20.81;nan;100157.09;5010619;28;20100;-71
2022/07/28 04:46:51;;;;;;;20.23;4.65;;;;;;;20.87;nan;100187.97;5010368;28;20084;-72
2022/07/28 04:49:16;;;;;;;15.15;4.00;;;;;;;20.90;nan;100186.59;5010162;28;20095;-72
2022/07/28 04:51:47;;;;;;;8.82;3.72;;;;;;;20.94;nan;100177.66;5011372;28;20034;-71
2022/07/28 04:54:12;;;;;;;13.00;4.28;;;;;;;21.02;nan;100224.34;5007757;28;20030;-73
2022/07/28 04:56:38;;;;;;;14.75;4.68;;;;;;;21.12;nan;100188.53;5006749;28;20284;-71
2022/07/28 04:59:03;;;;;;;19.95;5.60;;;;;;;21.22;nan;100201.72;5009691;28;20380;-71
2022/07/28 05:01:29;;;;;;;13.40;4.35;;;;;;;21.28;nan;100200.50;5009425;28;20033;-71
2022/07/28 05:03:54;;;;;;;12.48;4.00;;;;;;;21.37;nan;100190.66;5008119;28;20045;-71
2022/07/28 05:06:19;;;;;;;14.88;3.92;;;;;;;21.52;nan;100181.53;5008139;28;20030;-71
2022/07/28 05:08:45;;;;;;;8.07;3.80;;;;;;;21.63;nan;100157.97;5005983;28;20041;-71
2022/07/28 05:11:10;;;;;;;13.07;4.30;;;;;;;21.74;nan;100178.09;5007951;28;20034;-73
2022/07/28 05:13:36;;;;;;;8.60;3.33;;;;;;;21.80;nan;100195.59;5005584;28;20049;-71
2022/07/28 05:16:01;;;;;;;12.52;3.20;;;;;;;21.76;nan;100135.66;5004538;28;20034;-72
2022/07/28 05:18:27;;;;;;;11.55;2.75;;;;;;;22.05;nan;100223.69;5009172;28;20038;-70
2022/07/28 05:20:52;;;;;;;10.98;3.03;;;;;;;;;;5010386;28;20042;-71
2022/07/28 05:23:18;;;;;;;21.03;3.60;;;;;;;22.38;nan;100203.84;5007682;28;20038;-71
2022/07/28 05:25:43;;;;;;;11.80;3.30;;;;;;;22.46;nan;100149.47;5009892;28;20049;-70
2022/07/28 05:28:09;;;;;;;15.68;3.50;;;;;;;22.55;nan;100171.72;5007586;28;20411;-70
2022/07/28 05:30:35;;;;;;;21.17;3.65;;;;;;;22.65;nan;100206.34;5008003;28;20562;-71
2022/07/28 05:33:01;;;;;;;11.85;3.08;;;;;;;22.69;nan;100180.44;5007480;28;20041;-69
2022/07/28 05:35:27;;;;;;;17.42;2.78;;;;;;;22.79;nan;100224.22;5005325;28;20084;-70
2022/07/28 05:37:52;;;;;;;11.05;2.78;;;;;;;22.88;nan;100196.28;5001232;28;20034;-70
2022/07/28 05:40:18;;;;;;;5.40;3.00;;;;;;;22.98;nan;100227.47;5003214;28;20030;-71
2022/07/28 05:42:46;;;;;;;7.57;2.75;;;;;;;23.04;nan;100225.44;5009219;28;20459;-70
2022/07/28 05:45:12;;;;;;;9.30;3.00;;;;;;;23.15;nan;100245.50;5006540;28;20132;-71
2022/07/28 05:47:47;;;;;;;5.95;2.85;;;;;;;23.23;nan;100234.00;5006144;28;20132;-70
2022/07/28 05:50:17;;;;;;;7.25;2.70;;;;;;;23.30;nan;100253.16;5004321;28;20030;-71
2022/07/28 05:52:44;;;;;;;10.85;2.90;;;;;;;23.37;nan;100225.81;5012450;28;20099;-73
2022/07/28 05:55:09;;;;;;;5.93;2.50;;;;;;;;;;5010058;28;20041;-73
2022/07/28 05:57:35;;;;;;;12.05;2.90;;;;;;;23.55;nan;100232.75;5018777;28;20041;-73
2022/07/28 06:00:01;;;;;;;9.50;3.83;;;;;;;23.61;nan;100186.91;5007878;28;20038;-73
2022/07/28 06:02:26;;;;;;;8.73;3.38;;;;;;;23.65;nan;100237.03;5006309;28;20084;-73
2022/07/28 06:04:52;;;;;;;13.68;3.72;;;;;;;23.67;nan;100234.03;5007206;28;20030;-73
2022/07/28 06:07:17;;;;;;;10.02;3.58;;;;;;;23.76;nan;100248.28;5007891;28;20113;-73
2022/07/28 06:09:43;;;;;;;12.93;3.80;;;;;;;23.82;nan;100262.38;5004116;28;20028;-73
2022/07/28 06:12:08;;;;;;;23.50;3.90;;;;;;;23.78;nan;100316.00;5002859;28;20045;-72
2022/07/28 06:14:34;;;;;;;21.75;3.83;;;;;;;23.83;nan;100255.91;5007444;28;20378;-73
2022/07/28 06:16:59;;;;;;;17.92;3.35;;;;;;;23.86;nan;100264.09;5008867;28;20483;-72
2022/07/28 06:19:24;;;;;;;13.52;3.10;;;;;;;;;;5007153;28;20341;-72
2022/07/28 06:21:51;;;;;;;12.97;2.77;;;;;;;23.91;nan;100282.75;5002701;28;20037;-74
2022/07/28 06:24:17;;;;;;;5.82;3.38;;;;;;;23.97;nan;100227.72;5007632;28;20345;-72
2022/07/28 06:26:42;;;;;;;10.73;3.60;;;;;;;24.09;nan;100256.66;5005263;28;20419;-73
2022/07/28 06:29:08;;;;;;;12.57;4.78;;;;;;;24.12;nan;100233.69;5007008;28;20026;-73
2022/07/28 06:31:34;;;;;;;14.07;4.60;;;;;;;24.25;nan;100261.53;5006721;28;20077;-75
2022/07/28 06:34:00;;;;;;;14.10;5.30;;;;;;;24.35;nan;100280.81;5004569;28;20472;-75
2022/07/28 06:36:25;;;;;;;12.10;4.20;;;;;;;24.42;nan;100256.09;5008390;28;20041;-75
2022/07/28 06:38:50;;;;;;;9.43;2.92;;;;;;;24.63;nan;100292.00;5008422;28;20042;-75
2022/07/28 06:41:16;;;;;;;5.70;3.03;;;;;;;24.79;nan;100268.03;5007515;28;20037;-75
2022/07/28 06:43:41;;;;;;;7.30;3.33;;;;;;;24.83;nan;100276.25;5008230;28;20045;-75
2022/07/28 06:46:07;;;;;;;7.13;2.90;;;;;;;25.03;nan;100280.91;5007263;28;20107;-75
2022/07/28 06:48:32;;;;;;;7.40;2.90;;;;;;;25.15;nan;100325.22;5005112;28;20034;-75
2022/07/28 06:50:58;;;;;;;15.70;3.35;;;;;;;25.35;nan;100332.59;5009387;28;20025;-75
2022/07/28 06:53:24;;;;;;;16.13;6.00;;;;;;;25.47;nan;100291.44;5004781;28;20033;-75
2022/07/28 06:55:50;;;;;;;9.63;3.08;;;;;;;25.65;nan;100295.59;5008323;28;20045;-75
2022/07/28 06:58:15;;;;;;;3.30;2.20;;;;;;;25.71;nan;100295.41;5010301;28;20041;-75
2022/07/28 07:00:41;;;;;;;13.05;6.22;;;;;;;25.77;nan;100288.72;5008918;28;20060;-75
2022/07/28 07:03:06;;;;;;;8.77;3.20;;;;;;;25.84;nan;100253.91;5006534;28;20033;-75
2022/07/28 07:05:31;;;;;;;3.20;2.55;;;;;;;25.91;nan;100297.34;5006307;28;20104;-75
2022/07/28 07:07:57;;;;;;;11.02;6.72;;;;;;;25.84;nan;100238.50;5006525;28;20037;-74
2022/07/28 07:10:23;;;;;;;8.15;4.65;;;;;;;26.05;nan;100237.69;5008096;28;20391;-73
2022/07/28 07:12:48;;;;;;;8.32;4.80;;;;;;;26.10;nan;100303.03;5006662;28;20026;-74
2022/07/28 07:15:13;;;;;;;7.93;3.95;;;;;;;26.24;nan;100331.63;5004360;28;20102;-74
2022/07/28 07:17:40;;;;;;;5.18;3.00;;;;;;;26.35;nan;100284.22;5004850;28;20035;-74
2022/07/28 07:20:06;;;;;;;6.28;4.05;;;;;;;;;;5006598;28;20069;-74
2022/07/28 07:22:32;;;;;;;7.30;4.05;;;;;;;26.46;nan;100293.47;5005413;28;20030;-74
2022/07/28 07:25:06;;;;;;;6.75;3.15;;;;;;;26.47;nan;100286.94;5008747;28;20041;-74
2022/07/28 07:27:31;;;;;;;9.63;3.60;;;;;;;26.42;nan;100265.56;5008883;28;20050;-74
2022/07/28 07:29:57;;;;;;;4.57;2.55;;;;;;;26.66;nan;100274.84;5004741;28;20177;-69
2022/07/28 07:32:22;;;;;;;10.75;3.50;;;;;;;26.69;nan;100263.34;5007045;28;20032;-73
2022/07/28 07:34:48;;;;;;;18.45;11.13;;;;;;;26.77;nan;100262.47;5002040;28;20105;-74
2022/07/28 07:37:13;;;;;;;32.60;19.92;;;;;;;;;;5010591;28;20484;-74
2022/07/28 07:39:40;;;;;;;11.50;5.25;;;;;;;26.81;nan;100276.09;5004605;28;20096;-74
2022/07/28 07:42:05;;;;;;;9.82;3.35;;;;;;;26.87;nan;100297.16;5012439;28;20041;-69
2022/07/28 07:44:31;;;;;;;9.10;2.90;;;;;;;26.80;nan;100221.28;5003872;28;20419;-69
2022/07/28 07:46:56;;;;;;;10.02;4.22;;;;;;;26.87;nan;100248.50;5005587;28;20033;-69
2022/07/28 07:49:21;;;;;;;4.15;2.58;;;;;;;26.91;nan;100299.94;5007207;28;20034;-69
2022/07/28 07:51:47;;;;;;;5.28;2.78;;;;;;;26.92;nan;100293.44;5005796;28;20472;-69
2022/07/28 07:54:12;;;;;;;11.00;2.53;;;;;;;26.93;nan;100354.44;5008052;28;20092;-68
2022/07/28 07:56:38;;;;;;;3.88;2.50;;;;;;;26.86;nan;100286.66;5004775;28;20037;-69
2022/07/28 07:59:03;;;;;;;7.15;2.25;;;;;;;26.93;nan;100247.13;5009368;28;20064;-69
2022/07/28 08:01:29;;;;;;;5.63;2.60;;;;;;;26.95;nan;100298.16;5011091;28;20026;-68
2022/07/28 08:03:54;;;;;;;12.65;2.30;;;;;;;26.94;nan;100321.69;5006369;28;20041;-69
2022/07/28 08:06:19;;;;;;;9.40;2.90;;;;;;;26.94;nan;100286.56;5002737;28;20141;-69
2022/07/28 08:08:45;;;;;;;10.48;3.17;;;;;;;27.01;nan;100307.63;5003227;28;20400;-75
2022/07/28 08:11:11;;;;;;;7.55;2.60;;;;;;;;;;5010395;28;20076;-75
2022/07/28 08:13:36;;;;;;;5.25;2.55;;;;;;;26.93;nan;100281.50;5009812;28;20099;-74
2022/07/28 08:16:02;;;;;;;6.10;2.63;;;;;;;27.10;nan;100288.56;5012480;28;20058;-74
2022/07/28 08:18:28;;;;;;;9.25;2.60;;;;;;;27.18;nan;100325.53;5005560;28;20113;-74
2022/07/28 08:20:53;;;;;;;4.72;2.50;;;;;;;27.24;nan;100283.63;5013548;28;21395;-70
2022/07/28 08:23:18;;;;;;;5.93;2.55;;;;;;;27.31;nan;100291.19;5011751;28;20419;-74
2022/07/28 08:25:44;;;;;;;7.43;2.42;;;;;;;27.38;nan;100315.72;5010284;28;20076;-74
2022/07/28 08:28:09;;;;;;;4.70;2.47;;;;;;;27.38;nan;100309.53;5007523;28;20069;-74
2022/07/28 08:30:36;;;;;;;4.68;2.63;;;;;;;27.51;nan;100324.59;5007617;28;20054;-74
2022/07/28 08:33:01;;;;;;;6.65;2.30;;;;;;;27.60;nan;100292.81;5012224;28;20033;-74
2022/07/28 08:35:27;;;;;;;4.68;2.50;;;;;;;27.71;nan;100326.38;5008081;28;20034;-74
2022/07/28 08:37:53;;;;;;;7.40;2.42;;;;;;;27.79;nan;100308.41;5010646;28;20061;-74
2022/07/28 08:40:18;;;;;;;7.45;2.65;;;;;;;27.89;nan;100304.47;5012219;28;20032;-73
2022/07/28 08:42:56;;;;;;;6.70;2.33;;;;;;;27.92;nan;100272.09;5013862;28;20069;-74
2022/07/28 08:45:25;;;;;;;7.35;2.63;;;;;;;28.05;nan;100315.34;5011761;28;20599;-74
2022/07/28 08:47:51;;;;;;;6.60;2.60;;;;;;;28.11;nan;100316.66;5011790;28;20037;-74
2022/07/28 08:50:22;;;;;;;4.03;2.42;;;;;;;28.03;nan;100307.56;5013138;28;20061;-75
2022/07/28 08:52:50;;;;;;;5.20;2.15;;;;;;;28.17;nan;100324.19;5010146;28;20038;-75
2022/07/28 08:55:22;;;;;;;3.42;2.20;;;;;;;28.25;nan;100313.56;5003781;28;20030;-69
2022/07/28 08:57:48;;;;;;;4.35;2.58;;;;;;;28.32;nan;100324.56;5008246;28;20408;-69
2022/07/28 09:00:14;;;;;;;8.02;2.72;;;;;;;28.37;nan;100314.28;5010737;28;20076;-69
2022/07/28 09:02:42;;;;;;;6.70;2.50;;;;;;;28.44;nan;100327.22;5008237;28;20061;-75
2022/07/28 09:05:09;;;;;;;5.95;2.33;;;;;;;28.52;nan;100350.69;5006251;28;20109;-74
2022/07/28 09:07:38;;;;;;;4.53;2.55;;;;;;;28.59;nan;100301.31;5010242;28;20049;-74
2022/07/28 09:10:07;;;;;;;4.75;2.78;;;;;;;28.66;nan;100303.41;5007720;28;20560;-73
2022/07/28 09:12:34;;;;;;;10.20;2.67;;;;;;;28.79;nan;100323.88;5004476;28;20044;-74
2022/07/28 09:15:03;;;;;;;7.07;2.63;;;;;;;28.87;nan;100305.84;5007309;28;20526;-75
2022/07/28 09:17:29;;;;;;;5.30;2.40;;;;;;;28.97;nan;100311.53;5005495;28;20169;-74
2022/07/28 09:19:55;;;;;;;4.95;2.53;;;;;;;29.07;nan;100310.25;5009997;28;20124;-68
2022/07/28 09:22:20;;;;;;;4.35;2.40;;;;;;;29.05;nan;100361.28;5009351;28;20041;-72
2022/07/28 09:24:46;;;;;;;9.75;2.67;;;;;;;29.09;nan;100307.94;5022826;28;20053;-73
2022/07/28 09:27:14;;;;;;;4.15;2.38;;;;;;;29.15;nan;100308.47;5008780;28;20112;-74
2022/07/28 09:29:44;;;;;;;6.47;3.00;;;;;;;29.15;nan;100316.63;5005034;28;20042;-73
2022/07/28 09:32:13;;;;;;;5.10;2.10;;;;;;;29.19;nan;100295.78;5006558;28;20435;-73
2022/07/28 09:34:44;;;;;;;7.18;2.53;;;;;;;29.23;nan;100313.69;5007491;28;20034;-70
2022/07/28 09:37:21;;;;;;;5.80;2.38;;;;;;;29.24;nan;100307.16;5008905;28;20062;-73
2022/07/28 09:39:48;;;;;;;3.22;2.50;;;;;;;29.26;nan;100358.34;5011659;28;20797;-74
2022/07/28 09:42:14;;;;;;;7.22;2.55;;;;;;;29.33;nan;100303.44;5007318;28;20038;-68
2022/07/28 09:44:40;;;;;;;4.78;2.35;;;;;;;29.35;nan;100331.78;5004746;28;20040;-73
2022/07/28 09:47:26;;;;;;;9.13;2.50;;;;;;;29.28;nan;100288.22;5009585;28;20519;-74
2022/07/28 09:49:52;;;;;;;5.15;2.58;;;;;;;29.34;nan;100281.41;5012191;28;20034;-74
2022/07/28 09:52:30;;;;;;;3.72;2.17;;;;;;;29.46;nan;100323.88;5008194;28;20460;-75
2022/07/28 09:55:04;;;;;;;14.70;4.55;;;;;;;29.53;nan;100313.19;5011257;28;20502;-76
2022/07/28 09:57:30;;;;;;;7.45;3.05;;;;;;;29.61;nan;100350.19;5009976;28;20030;-75
2022/07/28 09:59:56;;;;;;;9.70;3.17;;;;;;;29.66;nan;100333.63;5011272;28;20042;-74
2022/07/28 10:02:23;;;;;;;7.07;2.47;;;;;;;29.65;nan;100356.47;5007860;28;20439;-69
2022/07/28 10:04:51;;;;;;;5.07;2.33;;;;;;;29.76;nan;100328.78;5006978;28;20091;-74
2022/07/28 10:07:17;;;;;;;6.53;2.47;;;;;;;29.89;nan;100332.94;5006584;28;20478;-74
2022/07/28 10:09:43;;;;;;;3.45;3.00;;;;;;;29.99;nan;100301.72;5008576;28;20028;-69
2022/07/28 10:12:23;;;;;;;3.88;2.70;;;;;;;29.95;nan;100341.59;5007215;28;20038;-74
2022/07/28 10:14:50;;;;;;;3.58;2.30;;;;;;;30.04;nan;100296.78;5005907;28;20045;-74
2022/07/28 10:17:33;;;;;;;4.07;2.65;;;;;;;30.09;nan;100320.13;5004493;28;20030;-75
2022/07/28 10:20:05;;;;;;;3.38;2.50;;;;;;;30.04;nan;100315.78;5007500;28;20034;-74
2022/07/28 10:22:33;;;;;;;4.95;2.40;;;;;;;30.11;nan;100315.91;5005310;28;20025;-74
2022/07/28 10:25:06;;;;;;;3.37;2.40;;;;;;;30.23;nan;100308.75;5006871;28;20456;-74
2022/07/28 10:27:32;;;;;;;6.07;3.10;;;;;;;30.33;nan;100301.97;5003791;28;20076;-74
2022/07/28 10:30:01;;;;;;;3.85;2.60;;;;;;;30.35;nan;100307.84;5008789;28;20034;-75
2022/07/28 10:32:31;;;;;;;4.78;2.78;;;;;;;30.42;nan;100278.84;5007269;28;20582;-74
2022/07/28 10:35:03;;;;;;;5.35;2.60;;;;;;;30.55;nan;100320.22;5011447;28;20042;-75
2022/07/28 10:37:32;;;;;;;3.78;2.40;;;;;;;30.69;nan;100323.16;5007184;28;20034;-74
2022/07/28 10:40:02;;;;;;;7.47;2.60;;;;;;;30.80;nan;100319.84;5008394;28;20069;-73
2022/07/28 10:42:28;;;;;;;3.10;2.30;;;;;;;30.85;nan;100363.06;5009564;28;20080;-74
2022/07/28 10:44:54;;;;;;;3.83;2.60;;;;;;;30.87;nan;100281.94;5000337;28;20041;-74
2022/07/28 10:47:20;;;;;;;8.23;2.70;;;;;;;30.94;nan;100295.63;5001843;28;20504;-74
2022/07/28 10:49:49;;;;;;;3.35;2.10;;;;;;;30.99;nan;100302.69;5007877;28;20483;-73
2022/07/28 10:52:17;;;;;;;6.00;2.72;;;;;;;31.03;nan;100307.03;4999888;28;20038;-73
2022/07/28 10:55:02;;;;;;;9.00;3.35;;;;;;;31.18;nan;100307.25;5006000;28;20034;-74
2022/07/28 10:57:30;;;;;;;6.10;2.55;;;;;;;31.26;nan;100243.63;5025091;28;20033;-74
2022/07/28 11:00:04;;;;;;;4.03;2.60;;;;;;;31.34;nan;100291.50;5005649;28;20500;-67
2022/07/28 11:03:06;;;;;;;4.25;2.35;;;;;;;31.20;nan;100305.72;5009854;28;20408;-73
2022/07/28 11:05:39;;;;;;;4.15;2.67;;;;;;;31.22;nan;100336.06;4978867;28;20041;-73
2022/07/28 11:08:14;;;;;;;2.97;2.42;;;;;;;31.30;nan;100301.59;4984048;28;20114;-67
2022/07/28 11:10:43;;;;;;;3.28;2.50;;;;;;;31.28;nan;100290.28;4979986;28;20041;-74
2022/07/28 11:13:26;;;;;;;3.35;2.65;;;;;;;31.28;nan;100287.56;4966763;28;20046;-75
2022/07/28 11:15:54;;;;;;;6.75;2.50;;;;;;;31.30;nan;100209.84;4982950;28;20031;-74
2022/07/28 11:18:20;;;;;;;4.78;2.42;;;;;;;31.43;nan;100281.16;4983425;28;20125;-68
2022/07/28 11:20:51;;;;;;;8.43;2.60;;;;;;;31.56;nan;100298.06;4981130;28;20038;-68
2022/07/28 11:23:35;;;;;;;5.63;2.50;;;;;;;31.67;nan;100300.91;4982504;28;20528;-69
2022/07/28 11:26:33;;;;;;;8.20;2.70;;;;;;;31.78;nan;100302.59;4970064;28;20046;-68
2022/07/28 11:28:58;;;;;;;7.65;2.60;;;;;;;31.85;nan;100301.91;4979464;28;20038;-75
2022/07/28 11:31:45;;;;;;;7.50;2.63;;;;;;;31.92;nan;100293.03;4985239;28;20434;-74
2022/07/28 11:34:12;;;;;;;3.95;2.30;;;;;;;31.99;nan;100317.66;4968210;28;20033;-74
2022/07/28 11:36:56;;;;;;;4.15;2.28;;;;;;;32.07;nan;100275.72;4982449;28;20493;-74
2022/07/28 11:39:26;;;;;;;8.25;2.60;;;;;;;32.12;nan;100266.41;4990521;28;20504;-73
2022/07/28 11:41:51;;;;;;;7.03;2.80;;;;;;;32.15;nan;100347.38;5006110;28;20373;-74
2022/07/28 11:44:28;;;;;;;5.32;2.35;;;;;;;32.17;nan;100266.06;5005324;28;20061;-73
2022/07/28 11:47:19;;;;;;;4.90;2.22;;;;;;;32.31;nan;100270.88;5012706;28;20798;-74
2022/07/28 11:50:05;;;;;;;6.47;2.33;;;;;;;32.41;nan;100272.91;5007968;28;20042;-74
2022/07/28 11:52:31;;;;;;;4.35;2.50;;;;;;;32.47;nan;100259.69;5008296;28;20034;-74
2022/07/28 11:54:57;;;;;;;6.70;2.80;;;;;;;32.53;nan;100260.94;5008661;28;20038;-74